Flight Track Log - Related Links

Times and Time Zones

All times are in EDT time to prevent confusion due to time zone crossing. See the ASQ4231 flight status page for this flight to view local times or setup timezone preferences in your user account.

Time Position Orientation Groundspeed Altitude Reporting Facility
EDT Latitude Longitude Course Direction KTS MPH feet Rate Location/Type
Tue 04:22:00 PM 23.3272 -109.3654 62° Northeast  Level FlightAware
Tue 04:23:00 PM 23.3710 -109.2763 62° Northeast  Level FlightAware
Tue 04:24:00 PM 23.4146 -109.1872 62° Northeast  Level FlightAware
Tue 04:25:00 PM 23.4583 -109.0980 62° Northeast  Level FlightAware
Tue 04:26:00 PM 23.5018 -109.0088 62° Northeast  Level FlightAware
Tue 04:27:00 PM 23.5453 -108.9195 62° Northeast  Level FlightAware
Tue 04:28:00 PM 23.5888 -108.8301 62° Northeast  Level FlightAware
Tue 04:29:00 PM 23.6322 -108.7407 62° Northeast  Level FlightAware
Tue 04:30:00 PM 23.6756 -108.6512 62° Northeast  Level FlightAware
Tue 04:31:00 PM 23.7189 -108.5617 62° Northeast  Level FlightAware
Tue 04:32:00 PM 23.7622 -108.4721 62° Northeast  Level FlightAware
Tue 04:33:00 PM 23.8054 -108.3824 62° Northeast  Level FlightAware
Tue 04:34:00 PM 23.8485 -108.2927 62° Northeast  Level FlightAware
Tue 04:35:00 PM 23.8916 -108.2029 62° Northeast  Level FlightAware
Tue 04:36:00 PM 23.9347 -108.1131 62° Northeast  Level FlightAware
Tue 04:37:00 PM 23.9777 -108.0232 62° Northeast  Level FlightAware
Tue 04:38:00 PM 24.0207 -107.9332 62° Northeast  Level FlightAware
Tue 04:39:00 PM 24.0636 -107.8432 62° Northeast  Level FlightAware
Tue 04:40:00 PM 24.1064 -107.7531 62° Northeast  Level FlightAware
Tue 04:41:00 PM 24.1492 -107.6630 62° Northeast  Level FlightAware
Tue 04:42:00 PM 24.1919 -107.5728 63° Northeast  Level FlightAware
Tue 04:43:00 PM 24.2346 -107.4826 63° Northeast  Level FlightAware
Tue 04:44:00 PM 24.2751 -107.3976 62° Northeast  Level FlightAware
Tue 04:45:00 PM 24.3182 -107.3075 62° Northeast  Level FlightAware
Tue 04:46:00 PM 24.3612 -107.2174 62° Northeast  Level FlightAware
Tue 04:47:00 PM 24.4042 -107.1272 62° Northeast  Level FlightAware
Tue 04:48:00 PM 24.4471 -107.0369 62° Northeast  Level FlightAware
Tue 04:49:00 PM 24.4900 -106.9465 62° Northeast  Level FlightAware
Tue 04:50:00 PM 24.5328 -106.8562 62° Northeast  Level FlightAware
Tue 04:51:00 PM 24.5756 -106.7657 63° Northeast  Level FlightAware
Tue 04:52:00 PM 24.6183 -106.6752 63° Northeast  Level FlightAware
Tue 04:53:00 PM 24.6610 -106.5846 63° Northeast  Level FlightAware
Tue 04:54:00 PM 24.7036 -106.4940 63° Northeast  Level FlightAware
Tue 04:55:00 PM 24.7461 -106.4033 63° Northeast  Level FlightAware
Tue 04:56:00 PM 24.7886 -106.3125 63° Northeast  Level FlightAware
Tue 04:57:00 PM 24.8311 -106.2217 63° Northeast  Level FlightAware
Tue 04:58:00 PM 24.8735 -106.1308 63° Northeast  Level FlightAware
Tue 04:59:00 PM 24.9158 -106.0398 63° Northeast  Level FlightAware
Tue 05:00:00 PM 24.9581 -105.9488 63° Northeast  Level FlightAware
Tue 05:01:00 PM 25.0003 -105.8577 63° Northeast  Level FlightAware
Tue 05:02:00 PM 25.0425 -105.7666 63° Northeast  Level FlightAware
Tue 05:03:00 PM 25.0846 -105.6754 63° Northeast  Level FlightAware
Tue 05:04:00 PM 25.1266 -105.5842 63° Northeast  Level FlightAware
Tue 05:05:00 PM 25.1695 -105.4933 62° Northeast  Level FlightAware
Tue 05:06:00 PM 25.2133 -105.4030 62° Northeast  Level FlightAware
Tue 05:07:00 PM 25.2571 -105.3127 62° Northeast  Level FlightAware
Tue 05:08:00 PM 25.3008 -105.2223 62° Northeast  Level FlightAware
Tue 05:09:00 PM 25.3445 -105.1318 62° Northeast  Level FlightAware
Tue 05:10:00 PM 25.3882 -105.0412 62° Northeast  Level FlightAware
Tue 05:11:00 PM 25.4288 -104.9490 65° Northeast  Level FlightAware
Tue 05:12:00 PM 25.4682 -104.8560 65° Northeast  Level FlightAware
Tue 05:13:00 PM 25.5075 -104.7630 65° Northeast  Level FlightAware
Tue 05:14:00 PM 25.5468 -104.6699 65° Northeast  Level FlightAware
Tue 05:15:00 PM 25.5863 -104.5769 63° Northeast  Level FlightAware
Tue 05:16:00 PM 25.6289 -104.4856 63° Northeast  Level FlightAware
Tue 05:17:00 PM 25.6713 -104.3941 63° Northeast  Level FlightAware
Tue 05:18:00 PM 25.7138 -104.3026 63° Northeast  Level FlightAware
Tue 05:19:00 PM 25.7561 -104.2111 63° Northeast  Level FlightAware
Tue 05:20:00 PM 25.7984 -104.1194 63° Northeast  Level FlightAware
Tue 05:21:00 PM 25.8407 -104.0277 63° Northeast  Level FlightAware
Tue 05:22:00 PM 25.8829 -103.9360 63° Northeast  Level FlightAware
Tue 05:23:00 PM 25.9250 -103.8441 63° Northeast  Level FlightAware
Tue 05:24:00 PM 25.9671 -103.7523 63° Northeast  Level FlightAware
Tue 05:25:00 PM 26.0078 -103.6596 64° Northeast  Level FlightAware
Tue 05:26:00 PM 26.0478 -103.5665 64° Northeast  Level FlightAware
Tue 05:27:00 PM 26.0873 -103.4731 67° East  Level FlightAware
Tue 05:28:00 PM 26.1238 -103.3782 67° East  Level FlightAware
Tue 05:29:00 PM 26.1603 -103.2832 67° East  Level FlightAware
Tue 05:30:00 PM 26.2018 -103.1909 63° Northeast  Level FlightAware
Tue 05:31:00 PM 26.2443 -103.0990 63° Northeast  Level FlightAware
Tue 05:32:00 PM 26.2867 -103.0071 63° Northeast  Level FlightAware
Tue 05:33:00 PM 26.3291 -102.9151 63° Northeast  Level FlightAware
Tue 05:34:00 PM 26.3711 -102.8228 65° Northeast  Level FlightAware
Tue 05:35:00 PM 26.4104 -102.7290 65° Northeast  Level FlightAware
Tue 05:36:00 PM 26.4496 -102.6352 65° Northeast  Level FlightAware
Tue 05:37:00 PM 26.4887 -102.5413 65° Northeast  Level FlightAware
Tue 05:38:00 PM 26.5278 -102.4474 65° Northeast  Level FlightAware
Tue 05:39:00 PM 26.5669 -102.3533 65° Northeast  Level FlightAware
Tue 05:40:00 PM 26.6059 -102.2592 65° Northeast  Level FlightAware
Tue 05:41:00 PM 26.6448 -102.1651 65° Northeast  Level FlightAware
Tue 05:42:00 PM 26.6836 -102.0709 65° Northeast  Level FlightAware
Tue 05:43:00 PM 26.7224 -101.9766 65° Northeast  Level FlightAware
Tue 05:44:00 PM 26.7633 -101.8835 63° Northeast  Level FlightAware
Tue 05:45:00 PM 26.8050 -101.7907 63° Northeast  Level FlightAware
Tue 05:46:00 PM 26.8467 -101.6979 63° Northeast  Level FlightAware
Tue 05:47:00 PM 26.8883 -101.6049 63° Northeast  Level FlightAware
Tue 05:48:00 PM 26.9298 -101.5120 63° Northeast  Level FlightAware
Tue 05:49:00 PM 26.9633 -101.4154 74° East  Level FlightAware
Tue 05:50:00 PM 26.9891 -101.3155 74° East  Level FlightAware
Tue 05:51:00 PM 27.0149 -101.2155 74° East  Level FlightAware
Tue 05:52:00 PM 27.0406 -101.1155 74° East  Level FlightAware
Tue 05:53:00 PM 27.0663 -101.0155 74° East  Level FlightAware
Tue 05:54:00 PM 27.0918 -100.9154 74° East  Level FlightAware
Tue 05:55:00 PM 27.1162 -100.8149 75° East  Level FlightAware
Tue 05:55:02 PM 27.0803 -100.3553 74° East 426 490 35,000  Level Houston Center
Tue 05:56:00 PM 27.1401 -100.7142 75° East  Level FlightAware
Tue 05:56:04 PM 27.1339 -100.2361 63° Northeast 427 491 35,000  Level Houston Center
Tue 05:57:00 PM 27.1638 -100.6135 75° East  Level FlightAware
Tue 05:57:06 PM 27.1883 -100.1178 63° Northeast 426 490 35,000  Level Houston Center
Tue 05:58:00 PM 27.1875 -100.5127 75° East  Level FlightAware
Tue 05:58:08 PM 27.2533 -99.9767 63° Northeast 425 489 35,000  Level Houston Center
Tue 05:59:00 PM 27.2111 -100.4119 75° East  Level FlightAware
Tue 05:59:10 PM 27.3203 -99.8650 56° Northeast 429 494 35,000  Level Houston Center
Tue 06:00:00 PM 27.2347 -100.3110 74° East  Level FlightAware
Tue 06:00:12 PM 27.3894 -99.7553 55° Northeast 430 495 35,000  Level Houston Center
Tue 06:01:14 PM 27.4586 -99.6456 55° Northeast 428 493 35,000  Level Houston Center
Tue 06:02:16 PM 27.5278 -99.5342 55° Northeast 432 497 35,000  Level Houston Center
Tue 06:03:18 PM 27.5972 -99.4236 55° Northeast 432 497 35,000  Level Houston Center
Tue 06:04:20 PM 27.6817 -99.2878 55° Northeast 436 502 35,000  Level Houston Center
Tue 06:05:22 PM 27.7528 -99.1744 55° Northeast 438 504 35,000  Level Houston Center
Tue 06:06:24 PM 27.8233 -99.0592 55° Northeast 441 507 35,000  Level Houston Center
Tue 06:07:26 PM 27.8933 -98.9453 55° Northeast 439 505 35,000  Level Houston Center
Tue 06:08:28 PM 27.9628 -98.8308 55° Northeast 440 506 35,000  Level Houston Center
Tue 06:09:30 PM 28.0314 -98.7178 55° Northeast 437 503 35,000  Level Houston Center
Tue 06:10:32 PM 28.1000 -98.6050 55° Northeast 435 501 35,000  Level Houston Center
Tue 06:11:34 PM 28.1689 -98.4917 55° Northeast 435 501 35,000  Level Houston Center
Tue 06:12:36 PM 28.2519 -98.3556 55° Northeast 436 502 35,000  Level Houston Center
Tue 06:13:38 PM 28.3208 -98.2422 55° Northeast 437 503 35,000  Level Houston Center
Tue 06:14:40 PM 28.3908 -98.1269 55° Northeast 440 506 35,000  Level Houston Center
Tue 06:15:43 PM 28.4575 -98.0136 56° Northeast 439 505 35,000  Level Houston Center
Tue 06:16:45 PM 28.5267 -97.9008 55° Northeast 436 502 35,000  Level Houston Center
Tue 06:17:47 PM 28.6053 -97.7675 56° Northeast 423 487 35,000  Level Houston Center
Tue 06:18:49 PM 28.6722 -97.6597 55° Northeast 418 481 35,000  Level Houston Center
Tue 06:19:51 PM 28.7356 -97.5511 56° Northeast 414 476 35,000  Level Houston Center
Tue 06:20:53 PM 28.8006 -97.4394 56° Northeast 421 484 35,000 -290 Level Houston Center
Tue 06:21:55 PM 28.8689 -97.3264 55° Northeast 432 497 34,400 -1,016 Descending Houston Center
Tue 06:22:57 PM 28.9383 -97.2092 56° Northeast 444 511 32,900 -1,548 Descending Houston Center
Tue 06:23:59 PM 29.0211 -97.0681 56° Northeast 445 512 31,200 -1,500 Descending Houston Center
Tue 06:25:01 PM 29.0886 -96.9528 56° Northeast 441 507 29,800 -1,415 Descending Houston Center
Tue 06:26:02 PM 29.1550 -96.8375 57° Northeast 440 506 28,300 -2,049 Descending Houston Center
Tue 06:27:04 PM 29.2244 -96.7186 56° Northeast 459 528 25,600 -2,081 Descending Houston Center
Tue 06:28:06 PM 29.3067 -96.5775 56° Northeast 451 519 24,000 -774 Descending Houston Center
Tue 06:29:08 PM 29.3731 -96.4653 56° Northeast 433 498 24,000 -1,161 Level Houston Center
Tue 06:30:10 PM 29.4369 -96.3544 56° Northeast 424 488 21,600 -3,000 Descending Houston Center
Tue 06:31:12 PM 29.4978 -96.2511 56° Northeast 399 459 17,800 -3,532 Descending Houston Center
Tue 06:32:14 PM 29.5547 -96.1494 57° Northeast 383 441 14,300 -2,661 Descending Houston Center
Tue 06:33:16 PM 29.6044 -96.0522 60° Northeast 363 418 12,300 -1,355 Descending Houston Center
Tue 06:34:18 PM 29.6533 -95.9542 60° Northeast 348 400 11,500 -1,113 Descending Houston Center
Tue 06:35:20 PM 29.7114 -95.8383 60° Northeast 348 400 10,000 -823 Descending Houston Center
Tue 06:36:22 PM 29.7600 -95.7431 60° Northeast 348 400 9,800 -484 Descending Houston Center
Tue 06:37:24 PM 29.7994 -95.6617 61° Northeast 301 346 9,000 -823 Descending Houston Center
Tue 06:38:26 PM 29.8403 -95.5819 59° Northeast 288 331 8,100 -823 Descending Houston Center
Tue 06:39:28 PM 29.8794 -95.4997 61° Northeast 290 334 7,300 -823 Descending Houston Center
Tue 06:40:30 PM 29.8956 -95.4111 78° East 294 338 6,400 -629 Descending Houston Center
Tue 06:41:32 PM 29.8961 -95.3197 90° East 288 331 6,000 -968 Descending Houston Center
Tue 06:42:34 PM 29.8967 -95.2181 90° East 269 310 4,400 -1,887 Descending Houston Center
Tue 06:43:36 PM 29.9200 -95.1456 70° East 268 308 2,100 -1,156 Descending Houston Center
Tue 06:44:49 PM 29.9767 -95.2092 316° Northwest 251 289 1,800 -629 Descending Houston Center
Tue 06:45:40 PM 29.9786 -95.2564 273° West 224 258 800 -850 Descending Houston Center
Tue 06:46:42 PM 29.9792 -95.3103 271° West 196 226 200 -581 Descending Houston Center

Login

Don't have an account? Register now (free) for customized features, flight alerts, and more!